sensor_id;sensor_type;location;lat;lon;timestamp;temperature;humidity
51765;DHT22;37835;53.256;6.456;2024-02-23T00:01:51;5.10;99.90
51765;DHT22;37835;53.256;6.456;2024-02-23T00:04:17;5.10;99.90
51765;DHT22;37835;53.256;6.456;2024-02-23T00:06:44;5.00;99.90
51765;DHT22;37835;53.256;6.456;2024-02-23T00:09:10;5.00;99.90
51765;DHT22;37835;53.256;6.456;2024-02-23T00:11:39;5.00;99.90
51765;DHT22;37835;53.256;6.456;2024-02-23T00:14:07;5.00;99.90
51765;DHT22;37835;53.256;6.456;2024-02-23T00:16:38;5.00;99.90
51765;DHT22;37835;53.256;6.456;2024-02-23T00:19:06;5.00;99.90
51765;DHT22;37835;53.256;6.456;2024-02-23T00:21:32;5.00;99.90
51765;DHT22;37835;53.256;6.456;2024-02-23T00:23:58;5.00;99.90
51765;DHT22;37835;53.256;6.456;2024-02-23T00:26:23;5.00;99.90
51765;DHT22;37835;53.256;6.456;2024-02-23T00:28:49;5.10;99.90
51765;DHT22;37835;53.256;6.456;2024-02-23T00:31:15;5.10;99.90
51765;DHT22;37835;53.256;6.456;2024-02-23T00:33:40;5.10;99.90
51765;DHT22;37835;53.256;6.456;2024-02-23T00:36:08;5.10;99.90
51765;DHT22;37835;53.256;6.456;2024-02-23T00:38:33;5.10;99.90
51765;DHT22;37835;53.256;6.456;2024-02-23T00:40:59;5.20;99.90
51765;DHT22;37835;53.256;6.456;2024-02-23T00:43:25;5.20;99.90
51765;DHT22;37835;53.256;6.456;2024-02-23T00:45:50;5.20;99.90
51765;DHT22;37835;53.256;6.456;2024-02-23T00:48:16;5.20;99.90
51765;DHT22;37835;53.256;6.456;2024-02-23T00:50:43;5.20;99.90
51765;DHT22;37835;53.256;6.456;2024-02-23T00:53:09;5.20;99.90
51765;DHT22;37835;53.256;6.456;2024-02-23T00:55:35;5.20;99.90
51765;DHT22;37835;53.256;6.456;2024-02-23T00:58:01;5.20;99.90
51765;DHT22;37835;53.256;6.456;2024-02-23T01:00:27;5.20;99.90
51765;DHT22;37835;53.256;6.456;2024-02-23T01:02:53;5.20;99.90
51765;DHT22;37835;53.256;6.456;2024-02-23T01:05:19;5.20;99.90
51765;DHT22;37835;53.256;6.456;2024-02-23T01:07:45;5.10;99.90
51765;DHT22;37835;53.256;6.456;2024-02-23T01:10:10;5.10;99.90
51765;DHT22;37835;53.256;6.456;2024-02-23T01:12:36;5.10;99.90
51765;DHT22;37835;53.256;6.456;2024-02-23T01:15:02;5.10;99.90
51765;DHT22;37835;53.256;6.456;2024-02-23T01:17:28;5.00;99.90
51765;DHT22;37835;53.256;6.456;2024-02-23T01:19:54;5.00;99.90
51765;DHT22;37835;53.256;6.456;2024-02-23T01:22:19;5.00;99.90
51765;DHT22;37835;53.256;6.456;2024-02-23T01:24:45;5.10;99.90
51765;DHT22;37835;53.256;6.456;2024-02-23T01:27:11;5.10;99.90
51765;DHT22;37835;53.256;6.456;2024-02-23T01:29:36;5.10;99.90
51765;DHT22;37835;53.256;6.456;2024-02-23T01:32:02;5.10;99.90
51765;DHT22;37835;53.256;6.456;2024-02-23T01:34:28;5.10;99.90
51765;DHT22;37835;53.256;6.456;2024-02-23T01:36:54;5.10;99.90
51765;DHT22;37835;53.256;6.456;2024-02-23T01:39:20;5.10;99.90
51765;DHT22;37835;53.256;6.456;2024-02-23T01:41:47;5.10;99.90
51765;DHT22;37835;53.256;6.456;2024-02-23T01:44:13;5.10;99.90
51765;DHT22;37835;53.256;6.456;2024-02-23T01:46:43;5.20;99.90
51765;DHT22;37835;53.256;6.456;2024-02-23T01:49:09;5.10;99.90
51765;DHT22;37835;53.256;6.456;2024-02-23T01:51:35;5.70;99.90
51765;DHT22;37835;53.256;6.456;2024-02-23T01:54:02;5.10;99.90
51765;DHT22;37835;53.256;6.456;2024-02-23T01:56:29;5.10;99.90
51765;DHT22;37835;53.256;6.456;2024-02-23T01:58:55;5.10;99.90
51765;DHT22;37835;53.256;6.456;2024-02-23T02:01:21;5.10;99.90
51765;DHT22;37835;53.256;6.456;2024-02-23T02:03:48;5.10;99.90
51765;DHT22;37835;53.256;6.456;2024-02-23T02:06:15;5.20;99.90
51765;DHT22;37835;53.256;6.456;2024-02-23T02:08:40;5.30;99.90
51765;DHT22;37835;53.256;6.456;2024-02-23T02:11:06;5.30;99.90
51765;DHT22;37835;53.256;6.456;2024-02-23T02:13:32;5.30;99.90
51765;DHT22;37835;53.256;6.456;2024-02-23T02:16:03;5.40;99.90
51765;DHT22;37835;53.256;6.456;2024-02-23T02:18:28;5.40;99.90
51765;DHT22;37835;53.256;6.456;2024-02-23T02:20:57;5.40;99.90
51765;DHT22;37835;53.256;6.456;2024-02-23T02:23:26;5.40;99.90
51765;DHT22;37835;53.256;6.456;2024-02-23T02:25:56;5.30;99.90
51765;DHT22;37835;53.256;6.456;2024-02-23T02:28:23;5.40;99.90
51765;DHT22;37835;53.256;6.456;2024-02-23T02:30:50;5.30;99.90
51765;DHT22;37835;53.256;6.456;2024-02-23T02:33:16;5.30;99.90
51765;DHT22;37835;53.256;6.456;2024-02-23T02:35:42;5.30;99.90
51765;DHT22;37835;53.256;6.456;2024-02-23T02:38:08;5.40;99.90
51765;DHT22;37835;53.256;6.456;2024-02-23T02:40:33;5.40;99.90
51765;DHT22;37835;53.256;6.456;2024-02-23T02:42:59;5.40;99.90
51765;DHT22;37835;53.256;6.456;2024-02-23T02:45:36;5.40;99.90
51765;DHT22;37835;53.256;6.456;2024-02-23T02:48:03;5.50;99.90
51765;DHT22;37835;53.256;6.456;2024-02-23T02:50:29;5.50;99.90
51765;DHT22;37835;53.256;6.456;2024-02-23T02:52:55;5.50;99.90
51765;DHT22;37835;53.256;6.456;2024-02-23T02:55:20;5.60;99.90
51765;DHT22;37835;53.256;6.456;2024-02-23T02:57:46;5.60;99.90
51765;DHT22;37835;53.256;6.456;2024-02-23T03:00:12;5.60;99.90
51765;DHT22;37835;53.256;6.456;2024-02-23T03:02:38;5.60;99.90
51765;DHT22;37835;53.256;6.456;2024-02-23T03:05:04;5.60;99.90
51765;DHT22;37835;53.256;6.456;2024-02-23T03:07:30;5.50;99.90
51765;DHT22;37835;53.256;6.456;2024-02-23T03:09:57;5.50;99.90
51765;DHT22;37835;53.256;6.456;2024-02-23T03:12:23;5.60;99.90
51765;DHT22;37835;53.256;6.456;2024-02-23T03:14:52;5.60;99.90
51765;DHT22;37835;53.256;6.456;2024-02-23T03:17:17;5.60;99.90
51765;DHT22;37835;53.256;6.456;2024-02-23T03:19:43;5.60;99.90
51765;DHT22;37835;53.256;6.456;2024-02-23T03:22:09;5.50;99.90
51765;DHT22;37835;53.256;6.456;2024-02-23T03:24:35;5.50;99.90
51765;DHT22;37835;53.256;6.456;2024-02-23T03:27:00;5.40;99.90
51765;DHT22;37835;53.256;6.456;2024-02-23T03:29:26;5.40;99.90
51765;DHT22;37835;53.256;6.456;2024-02-23T03:31:55;5.40;99.90
51765;DHT22;37835;53.256;6.456;2024-02-23T03:34:21;5.40;99.90
51765;DHT22;37835;53.256;6.456;2024-02-23T03:36:48;5.40;99.90
51765;DHT22;37835;53.256;6.456;2024-02-23T03:39:14;5.40;99.90
51765;DHT22;37835;53.256;6.456;2024-02-23T03:41:39;5.40;99.90
51765;DHT22;37835;53.256;6.456;2024-02-23T03:44:06;5.40;99.90
51765;DHT22;37835;53.256;6.456;2024-02-23T03:46:32;5.40;99.90
51765;DHT22;37835;53.256;6.456;2024-02-23T03:48:57;5.40;99.90
51765;DHT22;37835;53.256;6.456;2024-02-23T03:51:23;5.30;99.90
51765;DHT22;37835;53.256;6.456;2024-02-23T03:53:51;5.30;99.90
51765;DHT22;37835;53.256;6.456;2024-02-23T03:56:16;5.30;99.90
51765;DHT22;37835;53.256;6.456;2024-02-23T03:58:42;5.40;99.90
51765;DHT22;37835;53.256;6.456;2024-02-23T04:01:08;5.30;99.90
51765;DHT22;37835;53.256;6.456;2024-02-23T04:03:34;5.30;99.90
51765;DHT22;37835;53.256;6.456;2024-02-23T04:05:59;5.20;99.90
51765;DHT22;37835;53.256;6.456;2024-02-23T04:08:25;5.20;99.90
51765;DHT22;37835;53.256;6.456;2024-02-23T04:10:51;5.30;99.90
51765;DHT22;37835;53.256;6.456;2024-02-23T04:13:18;5.20;99.90
51765;DHT22;37835;53.256;6.456;2024-02-23T04:15:45;5.20;99.90
51765;DHT22;37835;53.256;6.456;2024-02-23T04:18:10;5.20;99.90
51765;DHT22;37835;53.256;6.456;2024-02-23T04:20:36;5.20;99.90
51765;DHT22;37835;53.256;6.456;2024-02-23T04:23:02;5.20;99.90
51765;DHT22;37835;53.256;6.456;2024-02-23T04:25:28;5.20;99.90
51765;DHT22;37835;53.256;6.456;2024-02-23T04:27:53;5.10;99.90
51765;DHT22;37835;53.256;6.456;2024-02-23T04:30:19;5.10;99.90
51765;DHT22;37835;53.256;6.456;2024-02-23T04:32:45;5.10;99.90
51765;DHT22;37835;53.256;6.456;2024-02-23T04:35:12;5.10;99.90
51765;DHT22;37835;53.256;6.456;2024-02-23T04:37:37;5.10;99.90
51765;DHT22;37835;53.256;6.456;2024-02-23T04:40:04;5.10;99.90
51765;DHT22;37835;53.256;6.456;2024-02-23T04:42:31;5.00;99.90
51765;DHT22;37835;53.256;6.456;2024-02-23T04:44:57;5.00;99.90
51765;DHT22;37835;53.256;6.456;2024-02-23T04:47:23;5.10;99.90
51765;DHT22;37835;53.256;6.456;2024-02-23T04:49:49;5.00;99.90
51765;DHT22;37835;53.256;6.456;2024-02-23T04:52:15;5.00;99.90
51765;DHT22;37835;53.256;6.456;2024-02-23T04:54:40;5.00;99.90
51765;DHT22;37835;53.256;6.456;2024-02-23T04:57:06;5.00;99.90
51765;DHT22;37835;53.256;6.456;2024-02-23T04:59:32;5.00;99.90
51765;DHT22;37835;53.256;6.456;2024-02-23T05:01:58;4.90;99.90
51765;DHT22;37835;53.256;6.456;2024-02-23T05:04:24;4.90;99.90
51765;DHT22;37835;53.256;6.456;2024-02-23T05:06:52;4.90;99.90
51765;DHT22;37835;53.256;6.456;2024-02-23T05:09:18;4.90;99.90
51765;DHT22;37835;53.256;6.456;2024-02-23T05:11:43;4.90;99.90
51765;DHT22;37835;53.256;6.456;2024-02-23T05:14:11;4.90;99.90
51765;DHT22;37835;53.256;6.456;2024-02-23T05:16:37;4.90;99.90
51765;DHT22;37835;53.256;6.456;2024-02-23T05:19:02;4.40;99.90
51765;DHT22;37835;53.256;6.456;2024-02-23T05:21:28;4.90;99.90
51765;DHT22;37835;53.256;6.456;2024-02-23T05:23:55;4.90;99.90
51765;DHT22;37835;53.256;6.456;2024-02-23T05:26:21;4.90;99.90
51765;DHT22;37835;53.256;6.456;2024-02-23T05:28:46;4.90;99.90
51765;DHT22;37835;53.256;6.456;2024-02-23T05:31:12;4.80;99.90
51765;DHT22;37835;53.256;6.456;2024-02-23T05:33:38;4.80;99.90
51765;DHT22;37835;53.256;6.456;2024-02-23T05:36:05;4.80;99.90
51765;DHT22;37835;53.256;6.456;2024-02-23T05:38:31;4.80;99.90
51765;DHT22;37835;53.256;6.456;2024-02-23T05:40:57;4.80;99.90
51765;DHT22;37835;53.256;6.456;2024-02-23T05:43:23;4.80;99.90
51765;DHT22;37835;53.256;6.456;2024-02-23T05:45:48;4.80;99.90
51765;DHT22;37835;53.256;6.456;2024-02-23T05:48:15;4.80;99.90
51765;DHT22;37835;53.256;6.456;2024-02-23T05:50:41;4.70;99.90
51765;DHT22;37835;53.256;6.456;2024-02-23T05:53:06;4.80;99.90
51765;DHT22;37835;53.256;6.456;2024-02-23T05:55:33;4.90;99.90
51765;DHT22;37835;53.256;6.456;2024-02-23T06:12:40;5.10;99.90
51765;DHT22;37835;53.256;6.456;2024-02-23T06:15:06;5.10;99.90
51765;DHT22;37835;53.256;6.456;2024-02-23T06:17:32;4.90;99.90
51765;DHT22;37835;53.256;6.456;2024-02-23T06:19:58;4.90;99.90
51765;DHT22;37835;53.256;6.456;2024-02-23T06:22:24;4.90;99.90
51765;DHT22;37835;53.256;6.456;2024-02-23T06:24:51;4.80;99.90
51765;DHT22;37835;53.256;6.456;2024-02-23T06:27:17;4.90;99.90
51765;DHT22;37835;53.256;6.456;2024-02-23T06:29:42;4.80;99.90
51765;DHT22;37835;53.256;6.456;2024-02-23T06:32:08;4.80;99.90
51765;DHT22;37835;53.256;6.456;2024-02-23T06:34:34;4.80;99.90
51765;DHT22;37835;53.256;6.456;2024-02-23T06:36:59;4.70;99.90
51765;DHT22;37835;53.256;6.456;2024-02-23T06:39:25;4.60;99.90
51765;DHT22;37835;53.256;6.456;2024-02-23T06:41:51;5.00;99.90
51765;DHT22;37835;53.256;6.456;2024-02-23T06:44:17;4.80;99.90
51765;DHT22;37835;53.256;6.456;2024-02-23T06:46:44;4.80;99.90
51765;DHT22;37835;53.256;6.456;2024-02-23T06:49:10;4.90;99.90
51765;DHT22;37835;53.256;6.456;2024-02-23T06:51:35;4.70;99.90
51765;DHT22;37835;53.256;6.456;2024-02-23T06:54:01;4.80;99.90
51765;DHT22;37835;53.256;6.456;2024-02-23T06:56:29;4.90;99.90
51765;DHT22;37835;53.256;6.456;2024-02-23T06:58:55;5.00;99.90
51765;DHT22;37835;53.256;6.456;2024-02-23T07:01:21;4.90;99.90
51765;DHT22;37835;53.256;6.456;2024-02-23T07:03:47;4.80;99.90
51765;DHT22;37835;53.256;6.456;2024-02-23T07:06:16;5.00;99.90
51765;DHT22;37835;53.256;6.456;2024-02-23T07:08:44;5.00;99.90
51765;DHT22;37835;53.256;6.456;2024-02-23T07:11:10;4.90;99.90
51765;DHT22;37835;53.256;6.456;2024-02-23T07:13:36;4.80;99.90
51765;DHT22;37835;53.256;6.456;2024-02-23T07:16:02;5.00;99.90
51765;DHT22;37835;53.256;6.456;2024-02-23T07:18:28;5.00;99.90
51765;DHT22;37835;53.256;6.456;2024-02-23T07:20:54;4.90;99.90
51765;DHT22;37835;53.256;6.456;2024-02-23T07:23:20;4.90;99.90
51765;DHT22;37835;53.256;6.456;2024-02-23T07:25:46;4.90;99.90
51765;DHT22;37835;53.256;6.456;2024-02-23T07:28:13;5.10;99.90
51765;DHT22;37835;53.256;6.456;2024-02-23T07:30:40;5.00;99.90
51765;DHT22;37835;53.256;6.456;2024-02-23T07:33:05;4.90;99.90
51765;DHT22;37835;53.256;6.456;2024-02-23T07:35:32;4.90;99.90
51765;DHT22;37835;53.256;6.456;2024-02-23T07:37:58;4.90;99.90
51765;DHT22;37835;53.256;6.456;2024-02-23T07:40:25;5.00;99.90
51765;DHT22;37835;53.256;6.456;2024-02-23T07:42:50;5.00;99.90
51765;DHT22;37835;53.256;6.456;2024-02-23T07:45:17;5.00;99.90
51765;DHT22;37835;53.256;6.456;2024-02-23T07:47:43;5.10;99.90
51765;DHT22;37835;53.256;6.456;2024-02-23T07:50:09;5.10;99.90
51765;DHT22;37835;53.256;6.456;2024-02-23T07:52:36;5.20;99.90
51765;DHT22;37835;53.256;6.456;2024-02-23T07:55:02;5.20;99.90
51765;DHT22;37835;53.256;6.456;2024-02-23T07:57:30;5.20;99.90
51765;DHT22;37835;53.256;6.456;2024-02-23T07:59:57;5.40;99.90
51765;DHT22;37835;53.256;6.456;2024-02-23T08:02:23;5.20;99.90
51765;DHT22;37835;53.256;6.456;2024-02-23T08:04:49;5.30;99.90
51765;DHT22;37835;53.256;6.456;2024-02-23T08:07:15;5.30;99.90
51765;DHT22;37835;53.256;6.456;2024-02-23T08:09:41;5.40;99.90
51765;DHT22;37835;53.256;6.456;2024-02-23T08:12:07;5.50;99.90
51765;DHT22;37835;53.256;6.456;2024-02-23T08:14:33;5.50;99.90
51765;DHT22;37835;53.256;6.456;2024-02-23T08:16:58;5.50;99.90
51765;DHT22;37835;53.256;6.456;2024-02-23T08:19:24;5.80;99.90
51765;DHT22;37835;53.256;6.456;2024-02-23T08:21:50;5.50;99.90
51765;DHT22;37835;53.256;6.456;2024-02-23T08:24:16;5.60;99.90
51765;DHT22;37835;53.256;6.456;2024-02-23T08:26:44;5.60;99.90
51765;DHT22;37835;53.256;6.456;2024-02-23T08:29:09;5.50;99.90
51765;DHT22;37835;53.256;6.456;2024-02-23T08:31:38;5.60;99.90
51765;DHT22;37835;53.256;6.456;2024-02-23T08:34:04;5.70;99.90
51765;DHT22;37835;53.256;6.456;2024-02-23T08:36:29;5.50;99.90
51765;DHT22;37835;53.256;6.456;2024-02-23T08:38:56;5.60;99.90
51765;DHT22;37835;53.256;6.456;2024-02-23T08:41:22;5.60;99.90
51765;DHT22;37835;53.256;6.456;2024-02-23T08:43:48;5.70;99.90
51765;DHT22;37835;53.256;6.456;2024-02-23T08:46:18;6.00;99.90
51765;DHT22;37835;53.256;6.456;2024-02-23T08:48:44;5.00;99.90
51765;DHT22;37835;53.256;6.456;2024-02-23T08:51:10;5.70;99.90
51765;DHT22;37835;53.256;6.456;2024-02-23T08:53:36;5.60;99.90
51765;DHT22;37835;53.256;6.456;2024-02-23T08:56:02;5.70;99.90
51765;DHT22;37835;53.256;6.456;2024-02-23T08:58:29;5.70;99.90
51765;DHT22;37835;53.256;6.456;2024-02-23T09:00:54;5.70;99.90
51765;DHT22;37835;53.256;6.456;2024-02-23T09:03:20;5.70;99.90
51765;DHT22;37835;53.256;6.456;2024-02-23T09:05:46;5.80;99.90
51765;DHT22;37835;53.256;6.456;2024-02-23T09:08:15;5.80;99.90
51765;DHT22;37835;53.256;6.456;2024-02-23T09:10:41;5.70;99.90
51765;DHT22;37835;53.256;6.456;2024-02-23T09:13:06;5.90;99.90
51765;DHT22;37835;53.256;6.456;2024-02-23T09:15:32;5.90;99.90
51765;DHT22;37835;53.256;6.456;2024-02-23T09:17:58;5.90;99.90
51765;DHT22;37835;53.256;6.456;2024-02-23T09:20:23;5.90;99.90
51765;DHT22;37835;53.256;6.456;2024-02-23T09:22:49;6.00;99.90
51765;DHT22;37835;53.256;6.456;2024-02-23T09:25:16;8.50;99.90
51765;DHT22;37835;53.256;6.456;2024-02-23T09:27:42;6.00;99.90
51765;DHT22;37835;53.256;6.456;2024-02-23T09:30:13;6.10;99.90
51765;DHT22;37835;53.256;6.456;2024-02-23T09:32:39;6.20;99.90
51765;DHT22;37835;53.256;6.456;2024-02-23T09:35:05;6.20;99.90
51765;DHT22;37835;53.256;6.456;2024-02-23T09:37:32;6.40;99.90
51765;DHT22;37835;53.256;6.456;2024-02-23T09:39:58;6.10;99.90
51765;DHT22;37835;53.256;6.456;2024-02-23T09:42:23;6.10;99.90
51765;DHT22;37835;53.256;6.456;2024-02-23T09:45:01;6.20;99.90
51765;DHT22;37835;53.256;6.456;2024-02-23T09:47:27;6.20;99.90
51765;DHT22;37835;53.256;6.456;2024-02-23T09:49:55;6.20;99.90
51765;DHT22;37835;53.256;6.456;2024-02-23T09:52:21;6.30;99.90
51765;DHT22;37835;53.256;6.456;2024-02-23T09:54:48;6.20;99.90
51765;DHT22;37835;53.256;6.456;2024-02-23T09:57:15;6.30;99.90
51765;DHT22;37835;53.256;6.456;2024-02-23T09:59:41;6.30;99.90
51765;DHT22;37835;53.256;6.456;2024-02-23T10:02:08;6.30;99.90
51765;DHT22;37835;53.256;6.456;2024-02-23T10:04:39;6.40;99.90
51765;DHT22;37835;53.256;6.456;2024-02-23T10:07:06;6.50;99.90
51765;DHT22;37835;53.256;6.456;2024-02-23T10:09:33;6.60;99.90
51765;DHT22;37835;53.256;6.456;2024-02-23T10:11:58;6.80;99.90
51765;DHT22;37835;53.256;6.456;2024-02-23T10:14:24;6.70;99.90
51765;DHT22;37835;53.256;6.456;2024-02-23T10:16:50;8.20;99.90
51765;DHT22;37835;53.256;6.456;2024-02-23T10:19:22;6.90;99.90
51765;DHT22;37835;53.256;6.456;2024-02-23T10:21:48;7.00;99.90
51765;DHT22;37835;53.256;6.456;2024-02-23T10:24:17;7.00;99.90
51765;DHT22;37835;53.256;6.456;2024-02-23T10:26:44;7.00;99.90
51765;DHT22;37835;53.256;6.456;2024-02-23T10:29:10;7.10;99.90
51765;DHT22;37835;53.256;6.456;2024-02-23T10:31:36;7.20;99.90
51765;DHT22;37835;53.256;6.456;2024-02-23T10:34:07;7.10;99.90
51765;DHT22;37835;53.256;6.456;2024-02-23T10:36:41;7.20;99.90
51765;DHT22;37835;53.256;6.456;2024-02-23T10:39:11;7.20;99.90
51765;DHT22;37835;53.256;6.456;2024-02-23T10:41:39;7.10;99.90
51765;DHT22;37835;53.256;6.456;2024-02-23T10:44:07;7.80;99.90
51765;DHT22;37835;53.256;6.456;2024-02-23T10:46:34;7.00;99.90
51765;DHT22;37835;53.256;6.456;2024-02-23T10:49:01;6.90;99.90
51765;DHT22;37835;53.256;6.456;2024-02-23T10:51:28;7.00;99.90
51765;DHT22;37835;53.256;6.456;2024-02-23T10:53:55;7.10;99.90
51765;DHT22;37835;53.256;6.456;2024-02-23T10:56:21;7.10;99.90
51765;DHT22;37835;53.256;6.456;2024-02-23T10:58:50;7.10;99.90
51765;DHT22;37835;53.256;6.456;2024-02-23T11:01:21;7.30;99.90
51765;DHT22;37835;53.256;6.456;2024-02-23T11:03:48;8.10;99.90
51765;DHT22;37835;53.256;6.456;2024-02-23T11:06:16;7.30;99.90
51765;DHT22;37835;53.256;6.456;2024-02-23T11:08:47;7.20;99.90
51765;DHT22;37835;53.256;6.456;2024-02-23T11:11:16;6.80;99.90
51765;DHT22;37835;53.256;6.456;2024-02-23T11:13:45;7.10;99.90
51765;DHT22;37835;53.256;6.456;2024-02-23T11:16:22;7.00;99.90
51765;DHT22;37835;53.256;6.456;2024-02-23T11:19:04;6.90;99.90
51765;DHT22;37835;53.256;6.456;2024-02-23T11:21:36;7.20;99.90
51765;DHT22;37835;53.256;6.456;2024-02-23T11:24:05;7.00;99.90
51765;DHT22;37835;53.256;6.456;2024-02-23T11:26:31;7.20;99.90
51765;DHT22;37835;53.256;6.456;2024-02-23T11:28:59;6.90;99.90
51765;DHT22;37835;53.256;6.456;2024-02-23T11:31:34;6.90;99.90
51765;DHT22;37835;53.256;6.456;2024-02-23T11:34:00;7.10;99.90
51765;DHT22;37835;53.256;6.456;2024-02-23T11:36:30;6.70;99.90
51765;DHT22;37835;53.256;6.456;2024-02-23T11:39:00;6.80;99.90
51765;DHT22;37835;53.256;6.456;2024-02-23T11:41:27;6.90;99.90
51765;DHT22;37835;53.256;6.456;2024-02-23T11:43:53;6.80;99.90
51765;DHT22;37835;53.256;6.456;2024-02-23T11:46:21;6.80;99.90
51765;DHT22;37835;53.256;6.456;2024-02-23T11:48:48;6.70;99.90
51765;DHT22;37835;53.256;6.456;2024-02-23T11:51:19;6.80;99.90
51765;DHT22;37835;53.256;6.456;2024-02-23T11:53:45;6.70;99.90
51765;DHT22;37835;53.256;6.456;2024-02-23T11:56:11;6.80;99.90
51765;DHT22;37835;53.256;6.456;2024-02-23T11:58:37;6.70;99.90
51765;DHT22;37835;53.256;6.456;2024-02-23T12:01:03;6.80;99.90
51765;DHT22;37835;53.256;6.456;2024-02-23T12:03:29;6.80;99.90
51765;DHT22;37835;53.256;6.456;2024-02-23T12:06:00;6.80;99.90
51765;DHT22;37835;53.256;6.456;2024-02-23T12:08:27;6.90;99.90
51765;DHT22;37835;53.256;6.456;2024-02-23T12:10:54;6.90;99.90
51765;DHT22;37835;53.256;6.456;2024-02-23T12:13:21;7.10;99.90
51765;DHT22;37835;53.256;6.456;2024-02-23T12:15:52;6.90;99.90
51765;DHT22;37835;53.256;6.456;2024-02-23T12:18:22;6.80;99.90
51765;DHT22;37835;53.256;6.456;2024-02-23T12:20:52;6.90;99.90
51765;DHT22;37835;53.256;6.456;2024-02-23T12:23:18;7.00;99.90
51765;DHT22;37835;53.256;6.456;2024-02-23T12:25:54;7.00;99.90
51765;DHT22;37835;53.256;6.456;2024-02-23T12:28:20;6.70;99.90
51765;DHT22;37835;53.256;6.456;2024-02-23T12:30:46;7.00;99.90
51765;DHT22;37835;53.256;6.456;2024-02-23T12:33:15;6.90;99.90
51765;DHT22;37835;53.256;6.456;2024-02-23T12:35:41;7.00;99.90
51765;DHT22;37835;53.256;6.456;2024-02-23T12:38:07;7.00;99.90
51765;DHT22;37835;53.256;6.456;2024-02-23T12:40:33;6.90;99.90
51765;DHT22;37835;53.256;6.456;2024-02-23T12:42:58;7.00;99.90
51765;DHT22;37835;53.256;6.456;2024-02-23T12:45:24;7.00;99.90
51765;DHT22;37835;53.256;6.456;2024-02-23T12:47:50;7.00;99.90
51765;DHT22;37835;53.256;6.456;2024-02-23T12:50:16;7.00;99.90
51765;DHT22;37835;53.256;6.456;2024-02-23T12:52:43;7.00;99.90
51765;DHT22;37835;53.256;6.456;2024-02-23T12:55:09;7.20;99.90
51765;DHT22;37835;53.256;6.456;2024-02-23T12:57:35;7.10;99.90
51765;DHT22;37835;53.256;6.456;2024-02-23T13:00:00;7.00;99.90
51765;DHT22;37835;53.256;6.456;2024-02-23T13:02:26;7.00;99.90
51765;DHT22;37835;53.256;6.456;2024-02-23T13:04:52;7.30;99.90
51765;DHT22;37835;53.256;6.456;2024-02-23T13:07:18;7.20;99.90
51765;DHT22;37835;53.256;6.456;2024-02-23T13:09:44;7.30;99.90
51765;DHT22;37835;53.256;6.456;2024-02-23T13:12:10;7.20;99.90
51765;DHT22;37835;53.256;6.456;2024-02-23T13:14:38;7.20;99.90
51765;DHT22;37835;53.256;6.456;2024-02-23T13:17:04;8.30;99.90
51765;DHT22;37835;53.256;6.456;2024-02-23T13:19:33;7.10;99.90
51765;DHT22;37835;53.256;6.456;2024-02-23T13:21:59;7.20;99.90
51765;DHT22;37835;53.256;6.456;2024-02-23T13:24:26;7.40;99.90
51765;DHT22;37835;53.256;6.456;2024-02-23T13:26:52;7.60;99.90
51765;DHT22;37835;53.256;6.456;2024-02-23T13:29:18;7.20;99.90
51765;DHT22;37835;53.256;6.456;2024-02-23T13:31:43;7.20;99.90
51765;DHT22;37835;53.256;6.456;2024-02-23T13:34:09;7.30;99.90
51765;DHT22;37835;53.256;6.456;2024-02-23T13:36:36;7.40;99.90
51765;DHT22;37835;53.256;6.456;2024-02-23T13:39:01;7.30;99.90
51765;DHT22;37835;53.256;6.456;2024-02-23T13:41:30;7.40;99.90
51765;DHT22;37835;53.256;6.456;2024-02-23T13:43:58;7.30;99.90
51765;DHT22;37835;53.256;6.456;2024-02-23T13:46:24;7.60;99.90
51765;DHT22;37835;53.256;6.456;2024-02-23T13:49:08;7.40;99.90
51765;DHT22;37835;53.256;6.456;2024-02-23T13:51:35;8.00;99.90
51765;DHT22;37835;53.256;6.456;2024-02-23T13:54:01;7.80;99.90
51765;DHT22;37835;53.256;6.456;2024-02-23T13:56:26;7.40;99.90
51765;DHT22;37835;53.256;6.456;2024-02-23T13:58:52;7.40;99.90
51765;DHT22;37835;53.256;6.456;2024-02-23T14:01:18;7.40;99.90
51765;DHT22;37835;53.256;6.456;2024-02-23T14:03:44;7.40;99.90
51765;DHT22;37835;53.256;6.456;2024-02-23T14:06:15;7.50;99.90
51765;DHT22;37835;53.256;6.456;2024-02-23T14:08:41;7.50;99.90
51765;DHT22;37835;53.256;6.456;2024-02-23T14:11:08;7.50;99.90
51765;DHT22;37835;53.256;6.456;2024-02-23T14:13:34;7.50;99.90
51765;DHT22;37835;53.256;6.456;2024-02-23T14:16:00;7.50;99.90
51765;DHT22;37835;53.256;6.456;2024-02-23T14:18:29;7.40;99.90
51765;DHT22;37835;53.256;6.456;2024-02-23T14:20:55;7.30;99.90
51765;DHT22;37835;53.256;6.456;2024-02-23T14:23:21;6.90;99.90
51765;DHT22;37835;53.256;6.456;2024-02-23T14:25:46;6.70;99.90
51765;DHT22;37835;53.256;6.456;2024-02-23T14:28:12;6.40;99.90
51765;DHT22;37835;53.256;6.456;2024-02-23T14:30:38;6.10;99.90
51765;DHT22;37835;53.256;6.456;2024-02-23T14:33:06;5.90;99.90
51765;DHT22;37835;53.256;6.456;2024-02-23T14:35:31;5.90;99.90
51765;DHT22;37835;53.256;6.456;2024-02-23T14:37:57;5.60;99.90
51765;DHT22;37835;53.256;6.456;2024-02-23T14:40:23;5.20;99.90
51765;DHT22;37835;53.256;6.456;2024-02-23T14:42:48;5.50;99.90
51765;DHT22;37835;53.256;6.456;2024-02-23T14:45:14;5.60;99.90
51765;DHT22;37835;53.256;6.456;2024-02-23T14:47:43;5.70;99.90
51765;DHT22;37835;53.256;6.456;2024-02-23T14:50:10;5.70;99.90
51765;DHT22;37835;53.256;6.456;2024-02-23T14:52:36;5.80;99.90
51765;DHT22;37835;53.256;6.456;2024-02-23T14:55:01;5.80;99.90
51765;DHT22;37835;53.256;6.456;2024-02-23T14:57:29;6.00;99.90
51765;DHT22;37835;53.256;6.456;2024-02-23T14:59:54;6.20;99.90
51765;DHT22;37835;53.256;6.456;2024-02-23T15:02:22;6.00;99.90
51765;DHT22;37835;53.256;6.456;2024-02-23T15:04:48;6.10;99.90
51765;DHT22;37835;53.256;6.456;2024-02-23T15:07:14;6.20;99.90
51765;DHT22;37835;53.256;6.456;2024-02-23T15:09:40;6.30;99.90
51765;DHT22;37835;53.256;6.456;2024-02-23T15:12:06;6.20;99.90
51765;DHT22;37835;53.256;6.456;2024-02-23T15:14:32;6.40;99.90
51765;DHT22;37835;53.256;6.456;2024-02-23T15:16:57;6.20;99.90
51765;DHT22;37835;53.256;6.456;2024-02-23T15:19:24;6.50;99.90
51765;DHT22;37835;53.256;6.456;2024-02-23T15:21:55;6.50;99.90
51765;DHT22;37835;53.256;6.456;2024-02-23T15:24:21;6.60;99.90
51765;DHT22;37835;53.256;6.456;2024-02-23T15:26:49;6.60;99.90
51765;DHT22;37835;53.256;6.456;2024-02-23T15:29:15;6.80;99.90
51765;DHT22;37835;53.256;6.456;2024-02-23T15:31:41;6.80;99.90
51765;DHT22;37835;53.256;6.456;2024-02-23T15:34:08;6.70;99.90
51765;DHT22;37835;53.256;6.456;2024-02-23T15:36:36;6.90;99.90
51765;DHT22;37835;53.256;6.456;2024-02-23T15:39:03;6.90;99.90
51765;DHT22;37835;53.256;6.456;2024-02-23T15:41:29;6.70;99.90
51765;DHT22;37835;53.256;6.456;2024-02-23T15:43:55;6.70;99.90
51765;DHT22;37835;53.256;6.456;2024-02-23T15:46:21;6.70;99.90
51765;DHT22;37835;53.256;6.456;2024-02-23T15:48:47;6.90;99.90
51765;DHT22;37835;53.256;6.456;2024-02-23T15:51:13;6.70;99.90
51765;DHT22;37835;53.256;6.456;2024-02-23T15:53:42;6.80;99.90
51765;DHT22;37835;53.256;6.456;2024-02-23T15:56:08;6.60;99.90